Time;durP1;ratioP1;P1;durP2;ratioP2;P2;SDS_P1;SDS_P2;PMS_P1;PMS_P2;Temp;Humidity;BMP_temperature;BMP_pressure;BME280_temperature;BME280_humidity;BME280_pressure;Samples;Min_cycle;Max_cycle;Signal;HPM_P1;HPM_P2
2022/11/22 00:00:46;;;;;;;0.90;0.75;;;;;;;16.41;98.51;96687.91;7395839;19;20002;-58
2022/11/22 00:03:13;;;;;;;2.13;1.08;;;;;;;16.36;99.00;96691.72;7392418;19;20428;-58
2022/11/22 00:05:39;;;;;;;3.45;0.77;;;;;;;16.29;98.98;96689.81;7399545;19;20013;-58
2022/11/22 00:08:05;;;;;;;1.58;0.57;;;;;;;16.25;99.51;96688.75;7397032;19;20462;-57
2022/11/22 00:10:32;;;;;;;4.28;1.02;;;;;;;16.24;99.94;96681.69;7394175;19;20014;-57
2022/11/22 00:12:58;;;;;;;2.72;0.68;;;;;;;16.31;99.50;96681.53;7395362;19;20471;-57
2022/11/22 00:15:25;;;;;;;0.60;0.60;;;;;;;16.37;99.08;96673.53;7393102;19;20006;-57
2022/11/22 00:17:51;;;;;;;1.40;0.63;;;;;;;16.44;99.61;96672.66;7392810;19;20379;-57
2022/11/22 00:20:17;;;;;;;1.85;0.30;;;;;;;16.54;99.14;96681.09;7395186;19;20007;-57
2022/11/22 00:22:43;;;;;;;1.27;1.10;;;;;;;16.51;99.14;96671.03;7394213;19;20015;-57
2022/11/22 00:25:10;;;;;;;1.15;1.02;;;;;;;16.51;98.90;96671.78;7395243;19;20026;-57
2022/11/22 00:27:36;;;;;;;2.65;0.45;;;;;;;16.43;99.23;96674.00;7393566;19;20006;-57
2022/11/22 00:30:02;;;;;;;1.48;1.00;;;;;;;16.56;98.77;96679.19;7393657;19;20011;-57
2022/11/22 00:32:29;;;;;;;3.83;1.25;;;;;;;16.65;98.82;96681.22;7399292;19;20022;-57
2022/11/22 00:34:55;;;;;;;1.70;0.95;;;;;;;16.74;97.62;96681.81;7396773;19;20086;-57
2022/11/22 00:37:21;;;;;;;1.15;0.80;;;;;;;16.71;97.89;96674.56;7396940;19;20022;-57
2022/11/22 00:39:47;;;;;;;10.82;1.15;;;;;;;16.75;97.58;96681.22;7393428;19;20354;-57
2022/11/22 00:42:13;;;;;;;1.83;0.43;;;;;;;16.95;96.75;96673.47;7396024;19;20558;-58
2022/11/22 00:44:39;;;;;;;1.10;0.73;;;;;;;16.89;96.28;96682.22;7393406;19;20007;-57
2022/11/22 00:47:05;;;;;;;1.10;0.28;;;;;;;16.96;96.67;96680.56;7398339;19;20015;-57
2022/11/22 00:49:32;;;;;;;0.60;0.60;;;;;;;16.89;96.81;96678.69;7392585;19;20014;-57
2022/11/22 00:51:58;;;;;;;0.57;0.40;;;;;;;16.90;96.94;96677.34;7397088;19;20011;-57
2022/11/22 00:54:24;;;;;;;6.32;0.85;;;;;;;17.03;96.22;96674.78;7393295;19;20025;-57
2022/11/22 00:56:50;;;;;;;4.78;1.25;;;;;;;16.97;96.17;96679.25;7393469;19;20010;-58
2022/11/22 00:59:16;;;;;;;5.93;0.70;;;;;;;16.88;96.43;96677.19;7390904;19;20478;-57
2022/11/22 01:01:42;;;;;;;0.73;0.50;;;;;;;16.90;96.82;96682.97;7395397;19;20105;-57
2022/11/22 01:04:09;;;;;;;2.85;1.30;;;;;;;16.95;96.47;96681.91;7393940;19;20086;-57
2022/11/22 01:06:35;;;;;;;0.57;0.50;;;;;;;16.92;97.04;96685.91;7394092;19;20064;-57
2022/11/22 01:09:01;;;;;;;4.70;1.08;;;;;;;17.00;96.90;96683.69;7392869;19;20015;-58
2022/11/22 01:11:27;;;;;;;2.17;0.70;;;;;;;17.16;96.30;96682.00;7395718;19;20011;-57
2022/11/22 01:13:53;;;;;;;7.78;0.63;;;;;;;17.31;95.13;96687.25;7392120;19;20038;-57
2022/11/22 01:16:20;;;;;;;1.98;0.68;;;;;;;17.17;95.52;96677.84;7393261;19;20596;-57
2022/11/22 01:18:46;;;;;;;0.35;0.35;;;;;;;17.01;96.98;96685.16;7391374;19;20021;-57
2022/11/22 01:21:12;;;;;;;0.38;0.30;;;;;;;17.23;95.34;96683.91;7396581;19;20493;-57
2022/11/22 01:23:38;;;;;;;1.25;1.15;;;;;;;17.36;94.14;96672.91;7397762;19;20010;-58
2022/11/22 01:26:08;;;;;;;16.95;1.60;;;;;;;17.43;94.02;96683.22;7394669;19;20031;-57
2022/11/22 01:28:35;;;;;;;1.35;1.23;;;;;;;17.41;94.06;96682.34;7395617;19;20011;-58
2022/11/22 01:31:01;;;;;;;9.50;1.48;;;;;;;17.41;93.85;96683.06;7392750;19;20018;-58
2022/11/22 01:33:28;;;;;;;13.43;1.42;;;;;;;17.26;94.62;96679.91;7390677;19;20011;-57
2022/11/22 01:35:54;;;;;;;2.70;1.38;;;;;;;17.19;94.80;96689.25;7391041;19;20010;-57
2022/11/22 01:38:20;;;;;;;0.63;0.45;;;;;;;17.15;94.89;96680.53;7390799;19;20028;-57
2022/11/22 01:40:46;;;;;;;6.75;0.63;;;;;;;17.15;94.98;96680.53;7390762;19;20723;-58
2022/11/22 01:43:24;;;;;;;3.35;0.90;;;;;;;17.31;93.85;96681.63;7394319;19;20581;-58
2022/11/22 01:46:02;;;;;;;5.80;0.57;;;;;;;17.29;94.55;96675.88;7395755;19;20018;-57
2022/11/22 01:48:50;;;;;;;1.73;1.48;;;;;;;17.42;94.44;96681.00;7392532;19;20006;-57
2022/11/22 01:51:24;;;;;;;1.90;0.80;;;;;;;17.04;95.78;96681.16;7392296;19;20014;-58
2022/11/22 01:53:52;;;;;;;4.78;1.30;;;;;;;16.93;96.97;96678.97;7389583;19;20034;-58
2022/11/22 01:56:20;;;;;;;5.65;0.85;;;;;;;17.35;95.00;96681.91;7391267;19;20007;-58
2022/11/22 01:58:51;;;;;;;14.20;1.40;;;;;;;17.37;94.34;96685.59;7390742;19;20006;-58
2022/11/22 02:01:17;;;;;;;7.03;2.08;;;;;;;17.33;94.38;96679.72;7393897;19;20043;-57
2022/11/22 02:03:48;;;;;;;2.05;1.95;;;;;;;17.24;94.59;96676.91;7391178;19;20018;-58
2022/11/22 02:06:15;;;;;;;1.70;1.38;;;;;;;17.21;95.04;96680.94;7389029;19;20455;-57
2022/11/22 02:08:51;;;;;;;6.72;0.68;;;;;;;17.25;95.18;96689.66;7394733;19;20022;-57
2022/11/22 02:11:20;;;;;;;1.67;0.68;;;;;;;17.21;95.32;96689.38;7390203;19;20015;-57
2022/11/22 02:13:47;;;;;;;0.35;0.35;;;;;;;17.20;94.68;96682.28;7389513;19;20039;-57
2022/11/22 02:16:13;;;;;;;0.63;0.63;;;;;;;17.30;94.53;96685.81;7389415;19;20014;-57
2022/11/22 02:18:39;;;;;;;1.33;1.23;;;;;;;17.34;94.73;96689.63;7395299;19;20045;-57
2022/11/22 02:21:09;;;;;;;10.68;1.25;;;;;;;17.41;93.74;96688.69;7390976;19;20025;-57
2022/11/22 02:24:10;;;;;;;1.30;1.27;;;;;;;17.39;94.27;96693.44;7393914;19;20074;-57
2022/11/22 02:26:36;;;;;;;1.17;0.40;;;;;;;17.07;95.19;96691.94;7387991;19;20357;-57
2022/11/22 02:29:06;;;;;;;0.95;0.90;;;;;;;16.90;96.02;96694.19;7387989;19;20573;-57
2022/11/22 02:31:42;;;;;;;1.02;0.43;;;;;;;16.95;96.51;96690.34;7394184;19;20006;-57
2022/11/22 02:34:11;;;;;;;7.95;1.50;;;;;;;16.99;96.09;96693.44;7390576;19;20044;-57
2022/11/22 02:36:48;;;;;;;1.67;1.33;;;;;;;17.33;94.90;96687.41;7389603;19;20447;-57
2022/11/22 02:39:19;;;;;;;0.55;0.40;;;;;;;17.28;95.25;96688.47;7394104;19;20014;-57
2022/11/22 02:41:47;;;;;;;0.90;0.28;;;;;;;17.19;95.04;96680.81;7392969;19;20373;-57
2022/11/22 02:44:13;;;;;;;3.90;2.08;;;;;;;17.19;94.98;96681.56;7390365;19;20030;-57
2022/11/22 02:46:52;;;;;;;0.85;0.30;;;;;;;17.79;92.60;96685.00;7388868;19;20014;-57
2022/11/22 02:49:20;;;;;;;0.22;0.22;;;;;;;17.45;92.71;96682.63;7390514;19;20006;-57
2022/11/22 02:51:47;;;;;;;1.75;0.63;;;;;;;17.26;93.55;96680.63;7393410;19;20039;-57
2022/11/22 02:54:14;;;;;;;2.92;0.45;;;;;;;17.27;93.70;96681.38;7388723;19;20015;-57
2022/11/22 02:56:40;;;;;;;1.20;0.73;;;;;;;17.35;93.41;96688.28;7393207;19;20038;-57
2022/11/22 02:59:06;;;;;;;4.72;0.85;;;;;;;17.27;93.80;96684.19;7388351;19;20006;-57
2022/11/22 03:01:33;;;;;;;1.20;0.65;;;;;;;17.36;93.63;96677.78;7390910;19;20018;-57
2022/11/22 03:03:59;;;;;;;0.55;0.45;;;;;;;17.62;92.67;96688.06;7390653;19;20356;-57
2022/11/22 03:06:26;;;;;;;1.55;0.95;;;;;;;17.74;91.86;96677.59;7394027;19;20032;-56
2022/11/22 03:08:52;;;;;;;1.00;0.35;;;;;;;17.79;90.72;96684.25;7392345;19;20027;-57
2022/11/22 03:11:18;;;;;;;0.65;0.50;;;;;;;17.65;91.15;96686.84;7389849;19;20015;-56
2022/11/22 03:13:44;;;;;;;6.70;1.27;;;;;;;17.62;91.48;96682.41;7387079;19;20011;-57
2022/11/22 03:16:10;;;;;;;9.85;1.00;;;;;;;17.71;91.60;96684.44;7388704;19;20014;-56
2022/11/22 03:18:37;;;;;;;0.52;0.52;;;;;;;17.85;91.12;96681.84;7388986;19;20097;-56
2022/11/22 03:21:04;;;;;;;0.40;0.38;;;;;;;17.95;90.71;96680.44;7387322;19;20491;-56
2022/11/22 03:23:31;;;;;;;1.15;0.68;;;;;;;17.92;90.83;96689.34;7388813;19;20747;-56
2022/11/22 03:25:57;;;;;;;8.13;1.20;;;;;;;18.11;89.90;96681.50;7387568;19;20011;-56
2022/11/22 03:28:24;;;;;;;2.75;0.55;;;;;;;18.13;90.12;96687.28;7387666;19;20041;-56
2022/11/22 03:30:50;;;;;;;0.80;0.68;;;;;;;18.09;89.76;96687.00;7387463;19;20015;-56
2022/11/22 03:33:17;;;;;;;0.10;0.10;;;;;;;18.05;90.02;96683.94;7388214;19;20006;-56
2022/11/22 03:35:43;;;;;;;0.63;0.63;;;;;;;9.83;100.00;96704.06;7389851;19;20010;-56
2022/11/22 03:38:09;;;;;;;0.57;0.57;;;;;;;8.09;100.00;96698.88;7393271;19;20535;-56
2022/11/22 03:40:35;;;;;;;0.82;0.30;;;;;;;8.80;100.00;96702.13;7386888;19;20066;-56
2022/11/22 03:43:01;;;;;;;1.20;0.30;;;;;;;8.90;100.00;96700.34;7385846;19;20341;-56
2022/11/22 03:45:28;;;;;;;2.72;0.55;;;;;;;8.20;100.00;96695.88;7390432;19;20021;-56
2022/11/22 03:47:56;;;;;;;8.88;1.00;;;;;;;7.97;100.00;96694.84;7394009;19;20454;-56
2022/11/22 03:50:22;;;;;;;3.53;1.02;;;;;;;8.35;100.00;96696.84;7387043;19;20018;-56
2022/11/22 03:52:49;;;;;;;2.83;0.98;;;;;;;8.12;100.00;96700.59;7387810;19;20086;-56
2022/11/22 03:55:15;;;;;;;3.63;1.35;;;;;;;7.69;100.00;96697.44;7388389;19;20003;-56
2022/11/22 03:57:41;;;;;;;1.50;0.50;;;;;;;9.25;100.00;96692.72;7387318;19;20086;-56
2022/11/22 04:00:08;;;;;;;1.55;1.45;;;;;;;9.36;100.00;96695.19;7387099;19;20007;-56
2022/11/22 04:02:38;;;;;;;2.27;0.80;;;;;;;9.23;100.00;96692.50;7391352;19;20023;-56
2022/11/22 04:05:05;;;;;;;4.43;0.65;;;;;;;10.54;100.00;96692.91;7388044;19;20541;-56
2022/11/22 04:07:31;;;;;;;3.60;0.77;;;;;;;8.39;100.00;96697.25;7388006;19;20037;-56
2022/11/22 04:09:57;;;;;;;4.65;1.15;;;;;;;9.21;100.00;96706.94;7386725;19;20026;-56
2022/11/22 04:12:24;;;;;;;1.25;0.60;;;;;;;10.64;100.00;96702.22;7389789;19;20018;-56
2022/11/22 04:15:08;;;;;;;3.33;0.40;;;;;;;12.04;100.00;96702.63;7388719;19;20018;-56
2022/11/22 04:17:43;;;;;;;1.95;1.20;;;;;;;13.21;100.00;96698.19;7397140;19;20022;-56
2022/11/22 04:23:11;;;;;;;1.50;0.93;;;;;;;13.65;100.00;96705.44;7392997;19;20046;-55
2022/11/22 04:25:39;;;;;;;4.68;1.48;;;;;;;12.91;100.00;96699.06;7394810;19;20006;-56
2022/11/22 04:28:07;;;;;;;2.47;1.08;;;;;;;9.79;100.00;96700.84;7392409;19;20014;-56
2022/11/22 04:33:20;;;;;;;4.03;0.80;;;;;;;11.62;100.00;96706.38;7393414;19;20519;-56
2022/11/22 04:35:47;;;;;;;1.20;0.95;;;;;;;10.04;100.00;96701.19;7394518;19;20062;-55
2022/11/22 04:38:14;;;;;;;5.30;0.70;;;;;;;11.22;100.00;96703.41;7393607;19;20389;-56
2022/11/22 04:40:41;;;;;;;2.10;1.00;;;;;;;11.70;100.00;96702.31;7395038;19;20396;-56
2022/11/22 04:46:00;;;;;;;1.02;0.43;;;;;;;10.57;100.00;96719.63;7393657;19;20038;-56
2022/11/22 04:48:26;;;;;;;3.50;1.35;;;;;;;10.58;100.00;96720.38;7395898;19;20031;-55
2022/11/22 04:53:37;;;;;;;1.33;1.20;;;;;;;12.82;100.00;96722.03;7393649;19;20010;-56
2022/11/22 04:56:04;;;;;;;5.03;2.63;;;;;;;12.96;100.00;96723.25;7393405;19;20019;-56
2022/11/22 04:58:30;;;;;;;7.35;1.20;;;;;;;12.57;100.00;96724.00;7394030;19;20007;-55
2022/11/22 05:00:56;;;;;;;0.57;0.47;;;;;;;11.53;100.00;96721.63;7394837;19;20017;-55
2022/11/22 05:03:22;;;;;;;7.03;1.38;;;;;;;12.63;100.00;96725.28;7390943;19;20386;-55
2022/11/22 05:05:48;;;;;;;0.93;0.93;;;;;;;8.93;100.00;96732.59;7391571;19;20046;-56
2022/11/22 05:08:15;;;;;;;1.30;0.75;;;;;;;13.95;100.00;96717.66;7396433;19;20030;-56
2022/11/22 05:10:56;;;;;;;3.22;0.70;;;;;;;15.53;100.00;96712.13;7390357;19;20010;-55
2022/11/22 05:13:23;;;;;;;;;;;;;;;12.03;100.00;96715.09;7393460;19;20015;-55
2022/11/22 05:15:52;;;;;;;1.52;1.05;;;;;;;13.18;100.00;96718.88;7393856;19;19915;-56
2022/11/22 05:18:20;;;;;;;6.43;1.63;;;;;;;13.03;100.00;96716.88;7392619;19;20010;-55
2022/11/22 05:20:46;;;;;;;0.32;0.32;;;;;;;12.56;100.00;96722.53;7392792;19;20015;-56
2022/11/22 05:25:59;;;;;;;2.28;1.25;;;;;;;15.09;100.00;96724.16;7392103;19;20521;-55
2022/11/22 05:28:30;;;;;;;0.75;0.52;;;;;;;16.64;100.00;96721.91;7388326;19;20006;-55
2022/11/22 05:30:56;;;;;;;1.30;0.70;;;;;;;14.83;100.00;96727.69;7391460;19;20117;-56
2022/11/22 05:33:22;;;;;;;1.25;0.60;;;;;;;14.57;100.00;96734.00;7393909;19;20025;-56
2022/11/22 05:35:49;;;;;;;4.80;1.60;;;;;;;14.80;100.00;96733.72;7395127;19;20078;-55
2022/11/22 05:38:15;;;;;;;3.70;1.42;;;;;;;15.75;100.00;96727.84;7389645;19;20048;-56
2022/11/22 05:40:42;;;;;;;3.05;1.05;;;;;;;16.43;100.00;96721.00;7392896;19;20014;-55
2022/11/22 05:43:08;;;;;;;5.20;1.13;;;;;;;8.98;100.00;96744.84;7390990;19;20021;-56
2022/11/22 05:45:34;;;;;;;3.22;0.85;;;;;;;10.53;100.00;96751.88;7391465;19;20515;-55
2022/11/22 05:48:00;;;;;;;1.48;1.25;;;;;;;12.94;100.00;96742.63;7391861;19;20015;-55
2022/11/22 05:50:26;;;;;;;1.38;1.27;;;;;;;14.09;100.00;96738.41;7390760;19;20007;-55
2022/11/22 05:52:59;;;;;;;5.20;1.13;;;;;;;15.71;100.00;96735.94;7390309;19;20436;-55
2022/11/22 05:55:25;;;;;;;0.50;0.30;;;;;;;16.21;100.00;96742.56;7391744;19;20014;-55
2022/11/22 05:57:52;;;;;;;2.03;1.00;;;;;;;15.19;100.00;96743.81;7389303;19;20234;-55
2022/11/22 06:00:18;;;;;;;2.88;0.98;;;;;;;16.15;100.00;96742.13;7390249;19;20638;-55
2022/11/22 06:02:44;;;;;;;3.22;1.90;;;;;;;16.13;100.00;96741.97;7394304;19;20380;-55
2022/11/22 06:05:10;;;;;;;0.95;0.40;;;;;;;14.89;100.00;96756.19;7393895;19;20044;-55
2022/11/22 06:07:36;;;;;;;1.45;0.38;;;;;;;15.93;100.00;96748.88;7394015;19;20015;-56
2022/11/22 06:10:03;;;;;;;9.35;1.13;;;;;;;16.10;100.00;96750.81;7390789;19;20015;-56
2022/11/22 06:12:29;;;;;;;1.55;0.55;;;;;;;16.16;100.00;96752.00;7393753;19;20116;-55
2022/11/22 06:14:55;;;;;;;1.38;0.55;;;;;;;15.13;100.00;96749.72;7390943;19;20007;-55
2022/11/22 06:17:21;;;;;;;4.78;1.50;;;;;;;15.74;100.00;96760.03;7390039;19;20018;-55
2022/11/22 06:19:47;;;;;;;2.85;1.02;;;;;;;16.13;100.00;96760.88;7389448;19;20025;-55
2022/11/22 06:22:13;;;;;;;0.10;0.10;;;;;;;16.07;100.00;96757.63;7392989;19;20027;-55
2022/11/22 06:24:41;;;;;;;4.53;1.65;;;;;;;16.36;100.00;96761.94;7395278;19;20466;-55
2022/11/22 06:27:08;;;;;;;3.20;0.77;;;;;;;16.39;100.00;96766.41;7390034;19;20017;-55
2022/11/22 06:29:34;;;;;;;5.35;0.38;;;;;;;16.29;100.00;96773.31;7392345;19;20103;-55
2022/11/22 06:32:00;;;;;;;0.73;0.65;;;;;;;16.26;100.00;96775.25;7393173;19;20010;-55
2022/11/22 06:34:27;;;;;;;0.82;0.13;;;;;;;16.01;100.00;96777.53;7388230;19;20027;-55
2022/11/22 06:36:53;;;;;;;1.45;1.15;;;;;;;15.61;100.00;96777.28;7390047;19;20797;-55
2022/11/22 06:39:19;;;;;;;0.73;0.73;;;;;;;16.19;100.00;96781.72;7388992;19;20052;-55
2022/11/22 06:41:45;;;;;;;0.95;0.80;;;;;;;16.40;100.00;96779.09;7391355;19;20094;-55
2022/11/22 06:44:11;;;;;;;0.55;0.50;;;;;;;16.60;100.00;96779.88;7391252;19;20010;-55
2022/11/22 06:46:38;;;;;;;1.42;1.05;;;;;;;16.70;100.00;96786.22;7388865;19;20007;-55
2022/11/22 06:49:04;;;;;;;0.50;0.50;;;;;;;16.75;100.00;96778.84;7389653;19;20026;-55
2022/11/22 06:51:31;;;;;;;2.40;0.95;;;;;;;16.79;100.00;96784.75;7389117;19;20030;-55
2022/11/22 06:53:58;;;;;;;11.68;2.15;;;;;;;16.74;100.00;96789.31;7389963;19;20044;-55
2022/11/22 06:56:28;;;;;;;10.20;1.85;;;;;;;16.60;100.00;96789.03;7388640;19;20017;-55
2022/11/22 06:58:54;;;;;;;11.43;2.92;;;;;;;16.62;100.00;96794.06;7388423;19;20027;-55
2022/11/22 07:01:23;;;;;;;7.03;2.55;;;;;;;16.48;100.00;96798.63;7390230;19;20328;-55
2022/11/22 07:03:49;;;;;;;11.10;3.17;;;;;;;16.57;100.00;96795.84;7393931;19;20018;-55
2022/11/22 07:06:18;;;;;;;13.45;4.47;;;;;;;16.51;100.00;96801.00;7387966;19;20018;-55
2022/11/22 07:08:45;;;;;;;3.60;1.55;;;;;;;16.40;100.00;96812.06;7390291;19;20109;-55
2022/11/22 07:11:17;;;;;;;1.55;1.23;;;;;;;16.28;100.00;96817.50;7391738;19;20006;-55
2022/11/22 07:13:44;;;;;;;1.05;0.82;;;;;;;16.42;100.00;96815.75;7388242;19;20035;-55
2022/11/22 07:16:12;;;;;;;3.88;1.42;;;;;;;16.18;100.00;96816.72;7388008;19;20504;-55
2022/11/22 07:18:39;;;;;;;1.92;0.82;;;;;;;16.16;100.00;96825.00;7389083;19;20015;-55
2022/11/22 07:21:08;;;;;;;4.18;1.75;;;;;;;16.09;100.00;96825.88;7389048;19;20035;-56
2022/11/22 07:23:35;;;;;;;4.78;1.75;;;;;;;16.01;100.00;96833.69;7387762;19;20011;-56
2022/11/22 07:26:01;;;;;;;7.45;1.23;;;;;;;15.86;100.00;96829.06;7393120;19;20071;-55
2022/11/22 07:28:27;;;;;;;9.50;1.35;;;;;;;15.77;100.00;96817.78;7386606;19;20014;-55
2022/11/22 07:31:01;;;;;;;3.28;0.88;;;;;;;15.95;100.00;96822.00;7388174;19;20031;-56
2022/11/22 07:33:28;;;;;;;3.42;1.55;;;;;;;15.76;100.00;96825.47;7387848;19;20385;-55
2022/11/22 07:35:55;;;;;;;10.50;1.45;;;;;;;15.67;100.00;96834.59;7386346;19;20011;-55
2022/11/22 07:38:21;;;;;;;0.90;0.80;;;;;;;15.70;100.00;96827.06;7388337;19;20006;-56
2022/11/22 07:40:48;;;;;;;1.75;1.00;;;;;;;15.73;100.00;96837.09;7387467;19;20010;-55
2022/11/22 07:43:14;;;;;;;1.70;1.27;;;;;;;15.68;100.00;96838.13;7388369;19;20054;-55
2022/11/22 07:45:40;;;;;;;0.95;0.90;;;;;;;15.63;100.00;96844.75;7386300;19;20019;-56
2022/11/22 07:48:06;;;;;;;1.60;0.90;;;;;;;15.73;100.00;96842.72;7388325;19;20006;-55
2022/11/22 07:50:33;;;;;;;4.22;2.28;;;;;;;15.73;100.00;96853.94;7389771;19;20096;-55
2022/11/22 07:52:59;;;;;;;1.75;1.17;;;;;;;16.03;100.00;96858.34;7394619;19;20015;-55
2022/11/22 07:55:26;;;;;;;2.67;1.40;;;;;;;15.96;100.00;96865.56;7394556;19;20394;-55
2022/11/22 07:57:52;;;;;;;9.23;1.48;;;;;;;16.03;100.00;96864.72;7394655;19;20020;-56
2022/11/22 08:00:19;;;;;;;0.45;0.45;;;;;;;15.92;100.00;96865.25;7396288;19;20070;-56
2022/11/22 08:02:45;;;;;;;3.83;1.80;;;;;;;15.57;100.00;96869.53;7395008;19;20010;-56
2022/11/22 08:05:11;;;;;;;3.08;1.40;;;;;;;15.91;100.00;96870.16;7394735;19;20014;-56
2022/11/22 08:07:38;;;;;;;3.05;0.63;;;;;;;16.09;100.00;96870.78;7397704;19;20014;-56
2022/11/22 08:10:04;;;;;;;2.25;1.30;;;;;;;15.70;100.00;96878.28;7392468;19;20018;-56
2022/11/22 08:12:30;;;;;;;3.28;1.40;;;;;;;15.45;100.00;96876.97;7397763;19;20011;-56
2022/11/22 08:14:56;;;;;;;9.52;0.80;;;;;;;15.31;100.00;96870.94;7394401;19;20046;-56
2022/11/22 08:17:23;;;;;;;6.47;1.42;;;;;;;15.96;100.00;96876.78;7394614;19;20019;-56
2022/11/22 08:19:52;;;;;;;2.10;1.05;;;;;;;15.14;100.00;96880.13;7394555;19;20014;-56
2022/11/22 08:22:18;;;;;;;2.92;1.15;;;;;;;12.68;100.00;96882.72;7396088;19;20031;-56
2022/11/22 08:24:44;;;;;;;6.68;2.30;;;;;;;12.51;100.00;96882.59;7397459;19;20492;-56
2022/11/22 08:27:10;;;;;;;5.35;1.90;;;;;;;12.50;100.00;96887.41;7394104;19;20085;-56
2022/11/22 08:29:37;;;;;;;8.45;1.83;;;;;;;12.16;100.00;96881.50;7392420;19;20368;-56
2022/11/22 08:32:03;;;;;;;5.88;2.95;;;;;;;11.35;100.00;96884.31;7398863;19;20018;-56
2022/11/22 08:34:29;;;;;;;3.35;1.58;;;;;;;11.57;100.00;96892.00;7395906;19;20010;-56
2022/11/22 08:36:56;;;;;;;2.17;1.48;;;;;;;11.52;100.00;96892.91;7395413;19;20014;-56
2022/11/22 08:39:22;;;;;;;5.60;1.27;;;;;;;15.43;100.00;96890.78;7392287;19;20527;-56
2022/11/22 08:41:48;;;;;;;5.28;0.68;;;;;;;15.69;100.00;96890.09;7394014;19;20029;-56
2022/11/22 08:44:15;;;;;;;6.65;1.70;;;;;;;15.96;100.00;96893.63;7392058;19;20034;-56
2022/11/22 08:46:41;;;;;;;9.27;1.23;;;;;;;15.92;100.00;96891.25;7394081;19;20017;-55
2022/11/22 08:49:09;;;;;;;4.35;0.47;;;;;;;15.90;100.00;96888.28;7393809;19;20339;-56
2022/11/22 08:51:36;;;;;;;0.70;0.65;;;;;;;16.05;100.00;96895.75;7394426;19;20015;-56
2022/11/22 08:54:02;;;;;;;0.32;0.22;;;;;;;16.18;100.00;96900.22;7392584;19;20013;-56
2022/11/22 08:56:28;;;;;;;4.38;1.58;;;;;;;16.17;100.00;96896.69;7395358;19;20010;-55
2022/11/22 08:58:54;;;;;;;2.55;1.02;;;;;;;16.13;100.00;96896.38;7393281;19;20006;-56
2022/11/22 09:01:22;;;;;;;0.80;0.77;;;;;;;16.03;100.00;96909.63;7393389;19;20026;-56
2022/11/22 09:03:48;;;;;;;2.25;1.35;;;;;;;15.94;100.00;96915.94;7393166;19;20014;-55
2022/11/22 09:06:16;;;;;;;12.63;1.48;;;;;;;15.74;100.00;96914.34;7396236;19;20017;-56
2022/11/22 09:08:42;;;;;;;3.80;2.00;;;;;;;15.47;100.00;96908.72;7396185;19;20013;-55
2022/11/22 09:11:11;;;;;;;3.45;1.40;;;;;;;15.56;100.00;96902.44;7392820;19;20341;-56
2022/11/22 09:13:38;;;;;;;1.48;0.80;;;;;;;15.87;100.00;96922.41;7393579;19;20018;-55
2022/11/22 09:16:07;;;;;;;5.32;2.03;;;;;;;15.97;100.00;96920.38;7391973;19;20020;-56
2022/11/22 09:18:34;;;;;;;1.52;0.65;;;;;;;15.90;100.00;96924.78;7391379;19;20014;-56
2022/11/22 09:21:06;;;;;;;1.10;1.00;;;;;;;15.94;100.00;96929.97;7393170;19;20032;-56
2022/11/22 09:23:32;;;;;;;;;;;;;;;15.80;100.00;96926.06;7394321;19;20022;-55
2022/11/22 09:26:10;;;;;;;3.33;2.28;;;;;;;15.57;100.00;96931.25;7395299;19;19922;-56
2022/11/22 09:28:36;;;;;;;1.65;1.00;;;;;;;15.52;100.00;96927.38;7392103;19;20022;-55
2022/11/22 09:31:11;;;;;;;1.98;1.05;;;;;;;15.61;100.00;96931.56;7393742;19;20022;-56
2022/11/22 09:33:39;;;;;;;4.30;0.35;;;;;;;15.49;100.00;96927.75;7392768;19;20017;-56
2022/11/22 09:36:09;;;;;;;1.55;1.45;;;;;;;15.47;100.00;96939.56;7390786;19;20010;-56
2022/11/22 09:38:36;;;;;;;2.03;0.77;;;;;;;15.25;100.00;96934.19;7389833;19;20015;-56
2022/11/22 09:41:12;;;;;;;0.68;0.47;;;;;;;15.28;100.00;96935.84;7394247;19;20007;-56
2022/11/22 09:43:55;;;;;;;4.07;1.88;;;;;;;15.38;100.00;96922.63;7391402;19;20011;-55
2022/11/22 09:46:52;;;;;;;4.18;0.77;;;;;;;15.43;100.00;96939.25;7391592;19;20035;-55
2022/11/22 09:49:50;;;;;;;1.75;0.98;;;;;;;15.57;100.00;96931.25;7395420;19;20007;-56
2022/11/22 09:52:42;;;;;;;0.75;0.35;;;;;;;15.81;100.00;96938.75;7394833;19;20463;-56
2022/11/22 09:55:22;;;;;;;0.40;0.35;;;;;;;16.08;100.00;96939.50;7388947;19;20095;-56
2022/11/22 09:57:56;;;;;;;5.85;0.70;;;;;;;16.01;100.00;96945.22;7392225;19;20347;-56
2022/11/22 10:00:26;;;;;;;1.45;0.35;;;;;;;16.30;100.00;96943.28;7391096;19;20014;-56
2022/11/22 10:03:04;;;;;;;1.35;1.10;;;;;;;15.87;100.00;96945.59;7390217;19;20010;-55
2022/11/22 10:05:50;;;;;;;2.53;0.57;;;;;;;16.12;100.00;96944.69;7395183;19;20011;-56
2022/11/22 10:08:21;;;;;;;1.13;0.88;;;;;;;16.49;100.00;96944.09;7395467;19;20007;-56
2022/11/22 10:10:51;;;;;;;1.30;0.43;;;;;;;16.51;100.00;96951.97;7391730;19;20014;-56
2022/11/22 10:13:53;;;;;;;1.90;0.98;;;;;;;16.30;100.00;96949.66;7389758;19;20025;-56
2022/11/22 10:16:28;;;;;;;1.95;0.50;;;;;;;16.36;100.00;96952.19;7389046;19;20031;-56
2022/11/22 10:19:09;;;;;;;0.73;0.73;;;;;;;16.54;100.00;96956.44;7389054;19;20034;-55
2022/11/22 10:21:35;;;;;;;;;;;;;;;16.74;100.00;96960.03;7393472;19;20029;-55
2022/11/22 10:24:02;;;;;;;0.17;0.17;;;;;;;16.85;100.00;96965.09;7392994;19;19915;-55
2022/11/22 10:26:34;;;;;;;1.00;0.75;;;;;;;16.85;100.00;96965.09;7391342;19;20010;-55
2022/11/22 10:29:18;;;;;;;1.23;0.90;;;;;;;16.75;100.00;96964.31;7390362;19;20022;-55
2022/11/22 10:32:03;;;;;;;0.57;0.10;;;;;;;16.72;100.00;96954.25;7392356;19;20010;-55
2022/11/22 10:34:29;;;;;;;1.23;0.65;;;;;;;16.78;100.00;96961.09;7391387;19;20011;-55
2022/11/22 10:37:06;;;;;;;2.30;0.55;;;;;;;16.54;100.00;96956.44;7395424;19;20029;-55
2022/11/22 10:39:53;;;;;;;0.35;0.20;;;;;;;16.37;100.00;96962.81;7390629;19;20098;-55
2022/11/22 10:42:29;;;;;;;1.17;0.93;;;;;;;16.25;100.00;96967.50;7397055;19;20031;-55
2022/11/22 10:45:14;;;;;;;2.80;0.65;;;;;;;16.13;100.00;96957.41;7392158;19;20840;-55
2022/11/22 10:47:56;;;;;;;1.13;0.75;;;;;;;16.16;100.00;96962.59;7397501;19;20014;-55
2022/11/22 10:50:50;;;;;;;1.75;0.52;;;;;;;16.09;100.00;96962.72;7388093;19;20628;-56
2022/11/22 10:53:41;;;;;;;1.08;0.88;;;;;;;15.97;100.00;96959.69;7391414;19;20018;-56
2022/11/22 10:56:34;;;;;;;0.98;0.43;;;;;;;15.87;100.00;96965.22;7390533;19;20078;-55
2022/11/22 10:59:12;;;;;;;0.20;0.20;;;;;;;15.82;100.00;96962.69;7390670;19;20011;-55
2022/11/22 11:02:17;;;;;;;0.40;0.40;;;;;;;15.86;100.00;96974.25;7394203;19;20017;-55
2022/11/22 11:04:45;;;;;;;1.38;0.50;;;;;;;15.84;100.00;96965.66;7385257;19;20015;-56
2022/11/22 11:07:15;;;;;;;2.05;0.68;;;;;;;15.80;100.00;96982.19;7387620;19;20025;-55
2022/11/22 11:09:48;;;;;;;0.80;0.20;;;;;;;16.05;100.00;96985.56;7389365;19;20018;-55
2022/11/22 11:12:21;;;;;;;1.08;0.63;;;;;;;16.32;100.00;96986.31;7391619;19;20018;-55
2022/11/22 11:14:58;;;;;;;0.55;0.40;;;;;;;16.64;100.00;96994.47;7387346;19;20007;-55
2022/11/22 11:17:34;;;;;;;1.85;1.20;;;;;;;16.62;100.00;96991.50;7387049;19;20021;-55
2022/11/22 11:20:04;;;;;;;1.52;0.75;;;;;;;16.95;100.00;96988.34;7389980;19;20386;-55
2022/11/22 11:22:33;;;;;;;0.57;0.57;;;;;;;16.95;100.00;96989.09;7391897;19;20007;-55
2022/11/22 11:25:28;;;;;;;0.50;0.50;;;;;;;17.05;100.00;96987.03;7389827;19;20006;-55
2022/11/22 11:27:57;;;;;;;5.68;1.15;;;;;;;17.28;100.00;96992.97;7397654;19;20018;-55
2022/11/22 11:30:24;;;;;;;3.03;0.65;;;;;;;17.37;100.00;96992.25;7394143;19;20436;-56
2022/11/22 11:32:55;;;;;;;2.88;0.38;;;;;;;17.55;100.00;96995.69;7395706;19;20013;-55
2022/11/22 11:35:23;;;;;;;;;;;;;;;17.64;100.00;96989.31;7402056;19;20006;-55
2022/11/22 11:37:49;;;;;;;0.68;0.47;;;;;;;17.75;100.00;96983.09;7396865;19;19922;-56
2022/11/22 11:40:28;;;;;;;1.13;1.05;;;;;;;17.78;100.00;96981.88;7393634;19;20021;-55
2022/11/22 11:43:17;;;;;;;0.50;0.50;;;;;;;17.78;100.00;96981.16;7396185;19;20007;-56
2022/11/22 11:45:44;;;;;;;0.73;0.40;;;;;;;17.68;100.00;96975.53;7394078;19;20014;-55
2022/11/22 11:48:36;;;;;;;1.95;0.30;;;;;;;17.59;100.00;96979.09;7396621;19;20018;-55
2022/11/22 11:51:24;;;;;;;2.60;0.40;;;;;;;17.50;100.00;96985.47;7395325;19;20023;-56
2022/11/22 11:54:09;;;;;;;0.47;0.20;;;;;;;17.40;100.00;96993.13;7395817;19;20479;-55